createdAt,value
2023-05-19T00:01:20.878Z,1.70
2023-05-19T00:03:53.801Z,2.20
2023-05-19T00:06:27.178Z,2.10
2023-05-19T00:09:05.509Z,2.10
2023-05-19T00:11:33.380Z,2.70
2023-05-19T00:14:00.815Z,2.63
2023-05-19T00:16:29.716Z,2.58
2023-05-19T00:19:00.248Z,2.75
2023-05-19T00:21:28.100Z,2.40
2023-05-19T00:23:55.678Z,2.58
2023-05-19T00:26:23.081Z,2.42
2023-05-19T00:28:50.560Z,2.50
2023-05-19T00:31:17.438Z,3.03
2023-05-19T00:33:44.686Z,2.22
2023-05-19T00:36:12.024Z,2.40
2023-05-19T00:38:39.310Z,2.22
2023-05-19T00:41:07.200Z,2.53
2023-05-19T00:43:36.534Z,2.22
2023-05-19T00:46:03.948Z,2.55
2023-05-19T00:48:30.945Z,2.50
2023-05-19T00:51:04.146Z,2.60
2023-05-19T00:53:33.797Z,2.30
2023-05-19T00:56:01.973Z,2.58
2023-05-19T00:58:30.722Z,2.40
2023-05-19T01:01:03.557Z,2.20
2023-05-19T01:03:34.907Z,2.38
2023-05-19T01:06:05.422Z,2.27
2023-05-19T01:08:37.657Z,2.15
2023-05-19T01:13:32.989Z,1.98
2023-05-19T01:16:06.982Z,2.22
2023-05-19T01:21:56.049Z,2.45
2023-05-19T01:24:39.163Z,2.33
2023-05-19T01:27:54.714Z,2.10
2023-05-19T01:30:37.107Z,2.00
2023-05-19T01:33:09.370Z,2.00
2023-05-19T01:35:38.289Z,2.40
2023-05-19T01:38:09.713Z,2.72
2023-05-19T01:40:39.395Z,1.95
2023-05-19T01:43:09.070Z,2.25
2023-05-19T01:45:36.929Z,2.33
2023-05-19T01:48:06.334Z,2.38
2023-05-19T01:50:34.769Z,2.25
2023-05-19T01:53:02.314Z,2.30
2023-05-19T01:55:29.393Z,2.20
2023-05-19T01:58:20.713Z,2.30
2023-05-19T02:01:16.898Z,2.50
2023-05-19T02:04:09.969Z,2.72
2023-05-19T02:07:09.996Z,2.25
2023-05-19T02:10:03.978Z,2.28
2023-05-19T02:12:38.852Z,2.00
2023-05-19T02:15:14.097Z,2.55
2023-05-19T02:17:48.151Z,2.58
2023-05-19T02:20:19.360Z,2.58
2023-05-19T02:22:46.172Z,2.10
2023-05-19T02:25:13.124Z,2.78
2023-05-19T02:27:40.221Z,2.70
2023-05-19T02:30:09.217Z,2.50
2023-05-19T02:32:36.475Z,2.65
2023-05-19T02:35:04.093Z,2.72
2023-05-19T02:37:31.114Z,2.30
2023-05-19T02:39:58.165Z,2.75
2023-05-19T02:42:24.941Z,1.90
2023-05-19T02:44:52.366Z,2.70
2023-05-19T02:47:19.185Z,2.47
2023-05-19T02:49:46.116Z,2.83
2023-05-19T02:52:12.893Z,2.75
2023-05-19T02:54:39.731Z,3.10
2023-05-19T02:57:06.745Z,2.85
2023-05-19T02:59:33.730Z,2.72
2023-05-19T03:02:02.178Z,2.72
2023-05-19T03:04:29.938Z,2.50
2023-05-19T03:06:59.889Z,2.72
2023-05-19T03:09:26.850Z,2.28
2023-05-19T03:11:53.631Z,2.70
2023-05-19T03:14:23.944Z,2.65
2023-05-19T03:16:51.315Z,3.28
2023-05-19T03:19:18.401Z,2.50
2023-05-19T03:21:45.333Z,2.75
2023-05-19T03:24:12.134Z,2.63
2023-05-19T03:26:39.077Z,2.70
2023-05-19T03:29:05.911Z,2.70
2023-05-19T03:31:32.718Z,2.92
2023-05-19T03:33:59.586Z,2.58
2023-05-19T03:36:31.864Z,2.42
2023-05-19T03:38:59.184Z,2.60
2023-05-19T03:41:26.041Z,2.40
2023-05-19T03:43:52.883Z,2.28
2023-05-19T03:46:19.842Z,2.55
2023-05-19T03:48:46.753Z,2.47
2023-05-19T03:51:13.548Z,2.70
2023-05-19T03:53:41.146Z,2.75
2023-05-19T03:56:08.821Z,2.58
2023-05-19T03:58:36.964Z,2.53
2023-05-19T04:22:38.662Z,2.55
2023-05-19T04:25:06.168Z,2.72
2023-05-19T04:27:36.498Z,3.17
2023-05-19T04:30:04.878Z,2.55
2023-05-19T04:32:31.766Z,3.53
2023-05-19T04:34:58.886Z,3.30
2023-05-19T04:37:26.284Z,3.95
2023-05-19T04:39:53.114Z,4.00
2023-05-19T04:42:20.160Z,3.78
2023-05-19T04:44:49.156Z,4.07
2023-05-19T04:47:16.204Z,3.78
2023-05-19T04:49:43.112Z,4.50
2023-05-19T04:52:11.611Z,4.65
2023-05-19T04:54:40.023Z,4.30
2023-05-19T04:57:07.335Z,4.90
2023-05-19T04:59:34.186Z,4.93
2023-05-19T05:02:01.071Z,4.57
2023-05-19T05:04:28.347Z,5.07
2023-05-19T05:06:55.158Z,4.20
2023-05-19T05:09:22.104Z,5.13
2023-05-19T05:11:49.381Z,4.57
2023-05-19T05:14:16.559Z,4.70
2023-05-19T05:16:44.018Z,4.28
2023-05-19T05:19:11.689Z,4.63
2023-05-19T05:21:38.770Z,5.28
2023-05-19T05:24:06.264Z,5.00
2023-05-19T05:26:35.394Z,5.28
2023-05-19T05:29:03.444Z,5.22
2023-05-19T05:31:30.342Z,5.28
2023-05-19T05:33:57.351Z,4.20
2023-05-19T05:36:24.135Z,4.43
2023-05-19T05:38:51.023Z,4.53
2023-05-19T05:41:17.900Z,3.58
2023-05-19T05:43:44.810Z,4.40
2023-05-19T05:46:11.802Z,3.80
2023-05-19T05:48:39.214Z,3.97
2023-05-19T05:51:06.740Z,4.25
2023-05-19T05:53:41.869Z,3.90
2023-05-19T05:56:10.348Z,4.20
2023-05-19T05:58:37.829Z,3.95
2023-05-19T06:01:05.441Z,3.95
2023-05-19T06:03:33.475Z,3.97
2023-05-19T06:06:01.532Z,4.05
2023-05-19T06:08:28.423Z,3.63
2023-05-19T06:10:55.253Z,4.05
2023-05-19T06:13:24.020Z,4.00
2023-05-19T06:15:51.776Z,3.83
2023-05-19T06:18:18.820Z,4.38
2023-05-19T06:20:45.615Z,3.90
2023-05-19T06:23:12.409Z,4.13
2023-05-19T06:25:39.206Z,4.25
2023-05-19T06:28:06.038Z,4.32
2023-05-19T06:30:33.078Z,3.70
2023-05-19T06:33:00.132Z,4.10
2023-05-19T06:35:27.056Z,3.97
2023-05-19T06:37:55.683Z,3.45
2023-05-19T06:40:23.554Z,3.67
2023-05-19T06:42:50.422Z,3.42
2023-05-19T06:45:21.653Z,3.60
2023-05-19T06:47:49.064Z,3.53
2023-05-19T06:50:16.267Z,3.45
2023-05-19T06:52:44.177Z,3.70
2023-05-19T06:55:11.029Z,3.60
2023-05-19T06:57:37.890Z,3.63
2023-05-19T07:00:08.673Z,3.33
2023-05-19T07:02:39.420Z,3.40
2023-05-19T07:05:06.581Z,3.60
2023-05-19T07:07:33.455Z,3.85
2023-05-19T07:10:02.304Z,3.67
2023-05-19T07:12:29.110Z,3.72
2023-05-19T07:14:56.026Z,3.70
2023-05-19T07:17:22.890Z,3.25
2023-05-19T07:19:49.751Z,3.55
2023-05-19T07:22:17.103Z,2.78
2023-05-19T07:24:43.996Z,2.85
2023-05-19T07:27:10.992Z,2.90
2023-05-19T07:29:40.861Z,3.35
2023-05-19T07:32:07.748Z,2.83
2023-05-19T07:34:34.703Z,3.05
2023-05-19T07:37:04.865Z,2.72
2023-05-19T07:39:32.337Z,2.92
2023-05-19T07:41:59.332Z,2.75
2023-05-19T07:44:27.104Z,3.22
2023-05-19T07:46:54.710Z,3.20
2023-05-19T07:49:21.513Z,2.55
2023-05-19T07:51:48.429Z,3.15
2023-05-19T07:54:15.494Z,3.28
2023-05-19T07:56:42.306Z,2.97
2023-05-19T07:59:09.198Z,3.58
2023-05-19T08:01:36.186Z,3.15
2023-05-19T08:04:03.745Z,2.75
2023-05-19T08:06:31.687Z,2.58
2023-05-19T08:08:58.589Z,3.03
2023-05-19T08:11:26.207Z,2.80
2023-05-19T08:13:53.155Z,2.20
2023-05-19T08:16:20.010Z,2.75
2023-05-19T08:18:47.062Z,2.88
2023-05-19T08:21:13.920Z,2.95
2023-05-19T08:23:40.835Z,2.83
2023-05-19T08:26:07.679Z,2.58
2023-05-19T08:28:34.533Z,2.50
2023-05-19T08:31:01.471Z,2.47
2023-05-19T08:33:28.347Z,2.97
2023-05-19T08:35:58.065Z,2.20
2023-05-19T08:38:26.419Z,2.83
2023-05-19T08:40:53.390Z,2.17
2023-05-19T08:43:20.206Z,1.90
2023-05-19T08:45:48.159Z,2.70
2023-05-19T08:48:17.533Z,2.72
2023-05-19T08:50:54.464Z,3.05
2023-05-19T08:53:34.028Z,2.47
2023-05-19T08:56:22.325Z,1.80
2023-05-19T08:58:52.572Z,2.58
2023-05-19T09:01:20.335Z,1.83
2023-05-19T09:03:49.756Z,1.45
2023-05-19T09:06:17.038Z,1.38
2023-05-19T09:08:44.836Z,1.70
2023-05-19T09:11:11.886Z,1.80
2023-05-19T09:13:39.154Z,1.38
2023-05-19T09:16:06.925Z,1.75
2023-05-19T09:18:33.845Z,1.92
2023-05-19T09:21:02.810Z,1.42
2023-05-19T09:23:36.004Z,1.40
2023-05-19T09:26:07.084Z,1.63
2023-05-19T09:28:37.630Z,1.73
2023-05-19T09:31:11.036Z,1.90
2023-05-19T09:33:42.182Z,1.45
2023-05-19T09:36:11.017Z,1.08
2023-05-19T09:38:39.408Z,1.35
2023-05-19T09:41:08.754Z,1.13
2023-05-19T09:43:36.302Z,1.20
2023-05-19T09:46:08.247Z,1.33
2023-05-19T09:48:36.469Z,1.17
2023-05-19T09:51:10.674Z,1.98
2023-05-19T09:53:38.739Z,1.40
2023-05-19T09:56:06.156Z,1.30
2023-05-19T09:58:36.686Z,1.35
2023-05-19T10:01:05.026Z,1.70
2023-05-19T10:03:33.611Z,1.40
2023-05-19T10:06:05.541Z,1.38
2023-05-19T10:08:34.191Z,1.30
2023-05-19T10:11:01.722Z,1.40
2023-05-19T10:13:30.827Z,1.50
2023-05-19T10:15:59.983Z,1.30
2023-05-19T10:18:29.585Z,1.40
2023-05-19T10:20:57.795Z,1.00
2023-05-19T10:23:25.475Z,1.15
2023-05-19T10:25:57.288Z,1.30
2023-05-19T10:28:36.959Z,1.45
2023-05-19T10:31:07.488Z,1.55
2023-05-19T10:34:22.069Z,1.38
2023-05-19T10:36:59.607Z,1.23
2023-05-19T10:39:35.472Z,1.40
2023-05-19T10:42:19.557Z,1.65
2023-05-19T10:45:04.801Z,1.10
2023-05-19T10:47:32.858Z,1.33
2023-05-19T10:50:01.320Z,1.55
2023-05-19T10:52:30.891Z,1.23
2023-05-19T10:54:58.324Z,1.58
2023-05-19T10:57:31.716Z,1.45
2023-05-19T11:00:00.825Z,1.70
2023-05-19T11:02:44.057Z,1.50
2023-05-19T11:05:14.880Z,1.55
2023-05-19T11:08:05.212Z,1.30
2023-05-19T11:10:32.571Z,1.52
2023-05-19T11:12:59.607Z,1.33
2023-05-19T11:15:27.659Z,1.30
2023-05-19T11:17:55.169Z,1.63
2023-05-19T11:20:27.347Z,1.55
2023-05-19T11:23:18.367Z,1.35
2023-05-19T11:25:50.073Z,1.70
2023-05-19T11:28:20.002Z,1.33
2023-05-19T11:30:52.560Z,1.60
2023-05-19T11:33:27.025Z,1.40
2023-05-19T11:35:58.077Z,1.83
2023-05-19T11:40:56.404Z,1.65
2023-05-19T11:45:51.949Z,1.38
2023-05-19T11:48:22.243Z,1.20
2023-05-19T11:50:49.779Z,1.63
2023-05-19T11:53:17.007Z,1.30
2023-05-19T11:55:46.813Z,1.70
2023-05-19T11:58:14.383Z,1.73
2023-05-19T12:00:45.752Z,1.65
2023-05-19T12:03:13.086Z,1.70
2023-05-19T12:05:45.824Z,1.65
2023-05-19T12:08:13.339Z,1.77
2023-05-19T12:10:40.957Z,1.50
2023-05-19T12:13:09.422Z,1.83
2023-05-19T12:15:36.756Z,1.70
2023-05-19T12:18:04.168Z,2.20
2023-05-19T12:20:40.674Z,1.50
2023-05-19T12:23:07.666Z,2.22
2023-05-19T12:25:34.944Z,1.50
2023-05-19T12:28:05.269Z,1.55
2023-05-19T12:30:33.657Z,1.70
2023-05-19T12:33:02.826Z,1.30
2023-05-19T12:35:34.494Z,1.80
2023-05-19T12:38:05.509Z,1.58
2023-05-19T12:43:04.421Z,1.40
2023-05-19T12:45:40.090Z,1.80
2023-05-19T12:48:12.524Z,1.60
2023-05-19T12:50:39.728Z,1.50
2023-05-19T12:53:10.701Z,1.80
2023-05-19T12:55:45.552Z,1.45
2023-05-19T12:58:12.910Z,1.85
2023-05-19T13:00:50.443Z,1.42
2023-05-19T13:03:22.300Z,1.70
2023-05-19T13:05:51.135Z,1.70
2023-05-19T13:08:20.401Z,1.73
2023-05-19T13:10:49.119Z,1.85
2023-05-19T13:13:16.669Z,1.88
2023-05-19T13:15:45.848Z,1.75
2023-05-19T13:18:13.606Z,1.80
2023-05-19T13:20:42.853Z,2.40
2023-05-19T13:23:14.226Z,1.90
2023-05-19T13:28:09.871Z,2.05
2023-05-19T13:30:39.039Z,1.98
2023-05-19T13:33:06.656Z,1.92
2023-05-19T13:35:37.228Z,2.08
2023-05-19T13:38:06.978Z,1.95
2023-05-19T13:40:34.776Z,1.77
2023-05-19T13:43:03.795Z,2.00
2023-05-19T13:45:30.725Z,1.90
2023-05-19T13:47:57.547Z,1.73
2023-05-19T13:50:24.536Z,1.77
2023-05-19T13:52:51.900Z,1.83
2023-05-19T13:55:19.247Z,1.70
2023-05-19T13:57:46.026Z,1.88
2023-05-19T14:00:13.778Z,1.95
2023-05-19T14:02:40.890Z,2.25
2023-05-19T14:05:10.384Z,2.00
2023-05-19T14:07:37.218Z,1.85
2023-05-19T14:10:08.407Z,2.05
2023-05-19T14:12:49.437Z,2.30
2023-05-19T14:15:23.593Z,1.63
2023-05-19T14:17:50.491Z,2.20
2023-05-19T14:20:17.365Z,1.80
2023-05-19T14:22:44.255Z,1.98
2023-05-19T14:25:11.267Z,2.03
2023-05-19T14:27:39.886Z,1.17
2023-05-19T14:30:08.337Z,1.80
2023-05-19T14:32:35.223Z,1.80
2023-05-19T14:35:02.348Z,1.70
2023-05-19T14:37:29.175Z,2.10
2023-05-19T14:39:57.493Z,1.90
2023-05-19T14:42:24.873Z,2.00
2023-05-19T14:44:51.684Z,2.03
2023-05-19T14:47:18.467Z,1.40
2023-05-19T14:49:45.493Z,1.83
2023-05-19T14:52:12.386Z,1.98
2023-05-19T14:54:39.223Z,1.98
2023-05-19T14:57:07.986Z,1.88
2023-05-19T14:59:38.096Z,1.70
2023-05-19T15:02:05.496Z,1.80
2023-05-19T15:04:32.353Z,1.77
2023-05-19T15:09:32.555Z,1.90
2023-05-19T15:12:01.125Z,1.50
2023-05-19T15:14:30.170Z,1.65
2023-05-19T15:16:58.056Z,1.80
2023-05-19T15:19:25.114Z,2.08
2023-05-19T15:21:52.065Z,1.80
2023-05-19T15:24:19.372Z,1.83
2023-05-19T15:26:47.047Z,1.83
2023-05-19T15:29:13.854Z,1.60
2023-05-19T15:31:41.356Z,1.80
2023-05-19T15:34:08.332Z,1.70
2023-05-19T15:36:35.504Z,1.77
2023-05-19T15:39:03.586Z,1.52
2023-05-19T15:41:30.501Z,1.67
2023-05-19T15:43:59.894Z,1.60
2023-05-19T15:46:26.798Z,1.80
2023-05-19T15:48:53.631Z,1.50
2023-05-19T15:51:20.645Z,1.60
2023-05-19T15:53:47.432Z,1.40
2023-05-19T15:56:14.374Z,1.92
2023-05-19T15:58:41.210Z,1.85
2023-05-19T16:01:08.423Z,1.60
2023-05-19T16:03:35.256Z,1.48
2023-05-19T16:06:02.170Z,1.92
2023-05-19T16:08:28.983Z,1.40
2023-05-19T16:10:55.973Z,1.75
2023-05-19T16:13:22.764Z,2.08
2023-05-19T16:15:49.586Z,1.50
2023-05-19T16:18:16.459Z,1.83
2023-05-19T16:20:43.988Z,1.70
2023-05-19T16:23:11.035Z,1.90
2023-05-19T16:25:37.841Z,1.77
2023-05-19T16:28:05.174Z,1.60
2023-05-19T16:30:32.234Z,1.80
2023-05-19T16:32:59.566Z,1.75
2023-05-19T16:35:29.249Z,1.42
2023-05-19T16:37:56.073Z,2.10
2023-05-19T16:40:22.805Z,2.20
2023-05-19T16:42:49.618Z,1.38
2023-05-19T16:45:17.420Z,1.75
2023-05-19T16:47:45.258Z,1.42
2023-05-19T16:50:12.904Z,1.48
2023-05-19T16:52:39.794Z,1.33
2023-05-19T16:55:07.242Z,1.70
2023-05-19T16:57:34.137Z,1.95
2023-05-19T17:00:00.944Z,1.30
2023-05-19T17:02:28.197Z,1.40
2023-05-19T17:04:55.405Z,1.55
2023-05-19T17:07:22.159Z,1.50
2023-05-19T17:09:49.095Z,1.48
2023-05-19T17:12:15.836Z,1.50
2023-05-19T17:14:43.443Z,1.60
2023-05-19T17:17:10.401Z,1.83
2023-05-19T17:19:37.343Z,1.40
2023-05-19T17:22:04.364Z,1.40
2023-05-19T17:24:33.144Z,1.35
2023-05-19T17:27:00.685Z,1.63
2023-05-19T17:29:30.130Z,1.48
2023-05-19T17:31:56.977Z,1.52
2023-05-19T17:34:23.869Z,1.33
2023-05-19T17:36:50.813Z,1.45
2023-05-19T17:39:20.001Z,1.25
2023-05-19T17:41:46.791Z,1.50
2023-05-19T17:44:13.533Z,1.45
2023-05-19T17:46:40.623Z,1.50
2023-05-19T17:49:07.457Z,1.45
2023-05-19T17:51:34.515Z,1.95
2023-05-19T17:54:01.790Z,1.35
2023-05-19T17:56:33.253Z,1.42
2023-05-19T17:59:00.506Z,1.60
2023-05-19T18:01:27.805Z,1.45
2023-05-19T18:03:55.038Z,1.30
2023-05-19T18:06:23.890Z,1.40
2023-05-19T18:08:51.701Z,1.52
2023-05-19T18:11:18.933Z,1.35
2023-05-19T18:13:45.906Z,1.50
2023-05-19T18:16:12.917Z,1.60
2023-05-19T18:18:43.285Z,1.42
2023-05-19T18:21:17.542Z,1.67
2023-05-19T18:23:45.767Z,1.42
2023-05-19T18:26:13.290Z,1.40
2023-05-19T18:28:41.207Z,1.40
2023-05-19T18:31:09.257Z,1.45
2023-05-19T18:33:36.183Z,1.30
2023-05-19T18:36:03.007Z,1.25
2023-05-19T18:38:29.791Z,1.17
2023-05-19T18:40:56.779Z,1.50
2023-05-19T18:43:23.635Z,1.30
2023-05-19T18:45:50.737Z,1.50
2023-05-19T18:48:17.856Z,1.23
2023-05-19T18:50:44.923Z,1.45
2023-05-19T18:53:12.055Z,1.27
2023-05-19T18:55:38.899Z,1.30
2023-05-19T18:58:06.062Z,1.60
2023-05-19T19:00:35.183Z,1.30
2023-05-19T19:03:02.474Z,1.45
2023-05-19T19:05:29.444Z,1.35
2023-05-19T19:07:56.390Z,1.30
2023-05-19T19:10:23.391Z,1.65
2023-05-19T19:12:50.630Z,1.20
2023-05-19T19:15:17.504Z,1.25
2023-05-19T19:17:45.258Z,1.63
2023-05-19T19:20:12.706Z,1.20
2023-05-19T19:22:39.671Z,1.13
2023-05-19T19:25:06.846Z,1.27
2023-05-19T19:27:35.508Z,1.58
2023-05-19T19:30:02.693Z,1.40
2023-05-19T19:32:31.299Z,1.30
2023-05-19T19:34:58.340Z,1.25
2023-05-19T19:37:25.149Z,1.05
2023-05-19T19:39:51.905Z,1.20
2023-05-19T19:42:18.782Z,1.38
2023-05-19T19:44:45.585Z,1.25
2023-05-19T19:47:12.358Z,1.10
2023-05-19T19:49:39.186Z,1.33
2023-05-19T19:52:06.144Z,1.30
2023-05-19T19:54:32.991Z,1.20
2023-05-19T19:56:59.839Z,1.25
2023-05-19T19:59:26.946Z,1.30
2023-05-19T20:01:53.895Z,1.38
2023-05-19T20:04:20.934Z,1.48
2023-05-19T20:06:47.952Z,1.20
2023-05-19T20:09:14.707Z,1.17
2023-05-19T20:11:41.570Z,1.38
2023-05-19T20:14:08.337Z,1.73
2023-05-19T20:16:35.368Z,1.20
2023-05-19T20:19:02.203Z,1.27
2023-05-19T20:21:29.004Z,1.50
2023-05-19T20:23:55.779Z,1.30
2023-05-19T20:26:24.228Z,1.35
2023-05-19T20:28:50.968Z,1.35
2023-05-19T20:31:17.726Z,1.40
2023-05-19T20:33:44.511Z,1.38
2023-05-19T20:36:11.306Z,1.45
2023-05-19T20:38:38.048Z,1.23
2023-05-19T20:41:04.831Z,1.60
2023-05-19T20:43:32.814Z,1.30
2023-05-19T20:46:01.607Z,1.48
2023-05-19T20:48:28.424Z,1.20
2023-05-19T20:50:55.422Z,1.52
2023-05-19T20:53:22.551Z,1.20
2023-05-19T20:55:49.368Z,1.30
2023-05-19T20:58:16.387Z,1.40
2023-05-19T21:00:43.139Z,1.33
2023-05-19T21:03:09.984Z,1.45
2023-05-19T21:05:36.784Z,1.60
2023-05-19T21:08:03.672Z,1.40
2023-05-19T21:10:30.483Z,1.38
2023-05-19T21:12:58.710Z,1.45
2023-05-19T21:15:26.827Z,1.35
2023-05-19T21:17:53.722Z,1.25
2023-05-19T21:20:20.788Z,1.70
2023-05-19T21:22:47.548Z,1.10
2023-05-19T21:25:15.326Z,1.30
2023-05-19T21:27:42.092Z,1.55
2023-05-19T21:30:09.624Z,1.33
2023-05-19T21:32:36.453Z,1.13
2023-05-19T21:35:03.866Z,1.30
2023-05-19T21:37:30.686Z,1.20
2023-05-19T21:39:57.912Z,1.10
2023-05-19T21:42:24.700Z,1.30
2023-05-19T21:44:51.454Z,1.23
2023-05-19T21:47:18.210Z,1.30
2023-05-19T21:49:45.211Z,1.30
2023-05-19T21:52:12.060Z,1.30
2023-05-19T21:54:38.831Z,1.75
2023-05-19T21:57:05.958Z,1.40
2023-05-19T21:59:32.822Z,1.42
2023-05-19T22:01:59.731Z,1.30
2023-05-19T22:04:27.000Z,1.55
2023-05-19T22:06:53.840Z,1.50
2023-05-19T22:09:20.606Z,1.58
2023-05-19T22:11:47.328Z,1.58
2023-05-19T22:14:14.219Z,1.65
2023-05-19T22:16:41.023Z,1.10
2023-05-19T22:19:08.089Z,1.50
2023-05-19T22:21:34.866Z,1.23
2023-05-19T22:24:02.019Z,1.13
2023-05-19T22:26:28.931Z,1.50
2023-05-19T22:28:55.802Z,1.40
2023-05-19T22:31:22.694Z,1.20
2023-05-19T22:33:49.527Z,1.17
2023-05-19T22:36:16.509Z,1.60
2023-05-19T22:38:43.314Z,1.20
2023-05-19T22:41:10.066Z,1.35
2023-05-19T22:43:37.085Z,1.40
2023-05-19T22:46:04.026Z,1.50
2023-05-19T22:48:31.500Z,1.40
2023-05-19T22:50:58.587Z,1.40
2023-05-19T22:53:25.368Z,1.23
2023-05-19T22:55:52.114Z,1.25
2023-05-19T22:58:18.883Z,1.40
2023-05-19T23:00:45.621Z,1.30
2023-05-19T23:03:12.592Z,1.40
2023-05-19T23:05:40.457Z,1.52
2023-05-19T23:08:07.272Z,1.60
2023-05-19T23:10:34.061Z,1.30
2023-05-19T23:13:00.861Z,1.42
2023-05-19T23:15:27.610Z,1.63
2023-05-19T23:18:01.366Z,1.45
2023-05-19T23:20:28.217Z,1.45
2023-05-19T23:22:54.968Z,1.35
2023-05-19T23:25:21.696Z,1.50
2023-05-19T23:27:48.459Z,1.60
2023-05-19T23:30:15.256Z,1.20
2023-05-19T23:32:42.228Z,1.60
2023-05-19T23:35:13.812Z,1.20
2023-05-19T23:37:40.762Z,1.52
2023-05-19T23:40:08.583Z,1.25
2023-05-19T23:42:36.409Z,1.30
2023-05-19T23:45:04.317Z,1.45
2023-05-19T23:47:31.341Z,1.20
2023-05-19T23:49:58.141Z,1.45
2023-05-19T23:52:24.992Z,1.67
2023-05-19T23:54:51.810Z,1.50
2023-05-19T23:57:18.646Z,1.65
2023-05-19T23:59:45.635Z,1.70
